sensor_id;sensor_type;location;lat;lon;timestamp;pressure;altitude;pressure_sealevel;temperature;humidity
42647;BME280;31319;53.678;-6.254;2023-02-24T19:03:36;101675.03;;;10.67;100.00
42647;BME280;31319;53.678;-6.254;2023-02-24T19:06:02;101667.97;;;11.84;100.00
42647;BME280;31319;53.678;-6.254;2023-02-24T19:08:28;101670.25;;;12.97;100.00
42647;BME280;31319;53.678;-6.254;2023-02-24T19:10:54;101668.63;;;12.96;100.00
42647;BME280;31319;53.678;-6.254;2023-02-24T19:13:20;101676.44;;;13.02;100.00
42647;BME280;31319;53.678;-6.254;2023-02-24T19:15:48;101687.53;;;13.25;100.00
42647;BME280;31319;53.678;-6.254;2023-02-24T19:18:14;101674.91;;;13.10;100.00
42647;BME280;31319;53.678;-6.254;2023-02-24T19:20:43;101679.13;;;13.44;100.00
42647;BME280;31319;53.678;-6.254;2023-02-24T19:23:09;101670.69;;;13.54;100.00
42647;BME280;31319;53.678;-6.254;2023-02-24T19:25:35;101667.03;;;13.45;100.00
42647;BME280;31319;53.678;-6.254;2023-02-24T19:28:01;101673.78;;;13.39;100.00
42647;BME280;31319;53.678;-6.254;2023-02-24T19:30:26;101673.47;;;13.13;100.00
42647;BME280;31319;53.678;-6.254;2023-02-24T19:32:52;101685.63;;;13.48;100.00
42647;BME280;31319;53.678;-6.254;2023-02-24T19:35:19;101699.06;;;13.49;100.00
42647;BME280;31319;53.678;-6.254;2023-02-24T19:37:48;101711.69;;;13.37;100.00
42647;BME280;31319;53.678;-6.254;2023-02-24T19:40:13;101716.59;;;13.26;100.00
42647;BME280;31319;53.678;-6.254;2023-02-24T19:42:39;101718.97;;;13.55;100.00
42647;BME280;31319;53.678;-6.254;2023-02-24T19:45:06;101711.06;;;13.53;100.00
42647;BME280;31319;53.678;-6.254;2023-02-24T19:47:31;101713.88;;;13.62;100.00
42647;BME280;31319;53.678;-6.254;2023-02-24T19:49:57;101711.91;;;13.40;100.00
42647;BME280;31319;53.678;-6.254;2023-02-24T19:52:23;101710.25;;;13.53;100.00
42647;BME280;31319;53.678;-6.254;2023-02-24T19:54:48;101702.88;;;13.62;100.00
42647;BME280;31319;53.678;-6.254;2023-02-24T19:57:14;101712.88;;;13.44;100.00
42647;BME280;31319;53.678;-6.254;2023-02-24T19:59:39;101707.38;;;13.58;100.00
42647;BME280;31319;53.678;-6.254;2023-02-24T20:02:05;101715.34;;;13.04;100.00
42647;BME280;31319;53.678;-6.254;2023-02-24T20:04:31;101729.38;;;12.75;100.00
42647;BME280;31319;53.678;-6.254;2023-02-24T20:06:57;101727.44;;;13.03;100.00
42647;BME280;31319;53.678;-6.254;2023-02-24T20:09:23;101734.56;;;12.31;100.00
42647;BME280;31319;53.678;-6.254;2023-02-24T20:11:49;101734.13;;;12.23;100.00
42647;BME280;31319;53.678;-6.254;2023-02-24T20:14:17;101738.69;;;12.47;100.00
42647;BME280;31319;53.678;-6.254;2023-02-24T20:16:43;101738.25;;;12.40;100.00
42647;BME280;31319;53.678;-6.254;2023-02-24T20:19:11;101735.09;;;13.20;100.00
42647;BME280;31319;53.678;-6.254;2023-02-24T20:21:37;101748.22;;;13.23;100.00
42647;BME280;31319;53.678;-6.254;2023-02-24T20:24:08;101742.28;;;13.44;100.00
42647;BME280;31319;53.678;-6.254;2023-02-24T20:26:35;101741.47;;;13.29;100.00
42647;BME280;31319;53.678;-6.254;2023-02-24T20:29:01;101740.47;;;13.25;100.00
42647;BME280;31319;53.678;-6.254;2023-02-24T20:31:28;101752.34;;;13.35;100.00
42647;BME280;31319;53.678;-6.254;2023-02-24T20:33:54;101744.84;;;13.40;100.00
42647;BME280;31319;53.678;-6.254;2023-02-24T20:36:27;101761.41;;;12.94;100.00
42647;BME280;31319;53.678;-6.254;2023-02-24T20:38:54;101747.34;;;12.82;100.00
42647;BME280;31319;53.678;-6.254;2023-02-24T20:41:22;101743.81;;;12.95;100.00
42647;BME280;31319;53.678;-6.254;2023-02-24T20:43:48;101745.50;;;12.77;100.00
42647;BME280;31319;53.678;-6.254;2023-02-24T20:46:15;101752.13;;;12.90;100.00
42647;BME280;31319;53.678;-6.254;2023-02-24T20:48:41;101748.81;;;12.93;100.00
42647;BME280;31319;53.678;-6.254;2023-02-24T20:51:09;101737.28;;;12.63;100.00
42647;BME280;31319;53.678;-6.254;2023-02-24T20:53:35;101736.47;;;12.76;100.00
42647;BME280;31319;53.678;-6.254;2023-02-24T20:56:05;101736.69;;;12.80;100.00
42647;BME280;31319;53.678;-6.254;2023-02-24T20:58:32;101746.56;;;12.95;100.00
42647;BME280;31319;53.678;-6.254;2023-02-24T21:00:58;101756.31;;;13.28;100.00
42647;BME280;31319;53.678;-6.254;2023-02-24T21:03:24;101770.44;;;13.22;100.00
42647;BME280;31319;53.678;-6.254;2023-02-24T21:05:51;101775.03;;;13.26;100.00
42647;BME280;31319;53.678;-6.254;2023-02-24T21:08:16;101779.09;;;13.15;100.00
42647;BME280;31319;53.678;-6.254;2023-02-24T21:10:43;101774.81;;;13.09;100.00
42647;BME280;31319;53.678;-6.254;2023-02-24T21:13:09;101779.59;;;13.17;100.00
42647;BME280;31319;53.678;-6.254;2023-02-24T21:15:35;101778.78;;;13.03;100.00
42647;BME280;31319;53.678;-6.254;2023-02-24T21:18:01;101780.94;;;13.20;100.00
42647;BME280;31319;53.678;-6.254;2023-02-24T21:20:27;101781.22;;;13.46;100.00
42647;BME280;31319;53.678;-6.254;2023-02-24T21:22:53;101782.13;;;13.69;100.00
42647;BME280;31319;53.678;-6.254;2023-02-24T21:25:18;101777.94;;;13.57;100.00
42647;BME280;31319;53.678;-6.254;2023-02-24T21:27:44;101777.69;;;13.81;100.00
42647;BME280;31319;53.678;-6.254;2023-02-24T21:30:12;101779.56;;;13.58;100.00
42647;BME280;31319;53.678;-6.254;2023-02-24T21:32:38;101776.03;;;13.17;100.00
42647;BME280;31319;53.678;-6.254;2023-02-24T21:35:04;101772.16;;;12.90;100.00
42647;BME280;31319;53.678;-6.254;2023-02-24T21:37:30;101770.91;;;12.83;100.00
42647;BME280;31319;53.678;-6.254;2023-02-24T21:39:55;101786.38;;;13.06;100.00
42647;BME280;31319;53.678;-6.254;2023-02-24T21:42:21;101790.75;;;12.93;100.00
42647;BME280;31319;53.678;-6.254;2023-02-24T21:44:47;101797.44;;;12.87;100.00
42647;BME280;31319;53.678;-6.254;2023-02-24T21:47:16;101800.81;;;12.98;100.00
42647;BME280;31319;53.678;-6.254;2023-02-24T21:49:41;101805.16;;;12.99;100.00
42647;BME280;31319;53.678;-6.254;2023-02-24T21:52:08;101819.81;;;12.94;100.00
42647;BME280;31319;53.678;-6.254;2023-02-24T21:54:36;101818.81;;;13.04;100.00
42647;BME280;31319;53.678;-6.254;2023-02-24T21:57:03;101823.06;;;12.96;100.00
42647;BME280;31319;53.678;-6.254;2023-02-24T21:59:31;101819.53;;;13.10;100.00
42647;BME280;31319;53.678;-6.254;2023-02-24T22:01:58;101823.41;;;13.09;100.00
42647;BME280;31319;53.678;-6.254;2023-02-24T22:04:24;101822.28;;;13.10;100.00
42647;BME280;31319;53.678;-6.254;2023-02-24T22:06:49;101826.53;;;13.02;100.00
42647;BME280;31319;53.678;-6.254;2023-02-24T22:09:15;101823.31;;;13.27;100.00
42647;BME280;31319;53.678;-6.254;2023-02-24T22:11:46;101836.03;;;13.23;100.00
42647;BME280;31319;53.678;-6.254;2023-02-24T22:14:13;101832.13;;;13.11;100.00
42647;BME280;31319;53.678;-6.254;2023-02-24T22:16:40;101828.66;;;13.05;100.00
42647;BME280;31319;53.678;-6.254;2023-02-24T22:19:05;101836.63;;;13.20;100.00
42647;BME280;31319;53.678;-6.254;2023-02-24T22:21:31;101844.50;;;12.94;100.00
42647;BME280;31319;53.678;-6.254;2023-02-24T22:23:59;101847.59;;;12.74;100.00
42647;BME280;31319;53.678;-6.254;2023-02-24T22:26:27;101843.69;;;12.61;100.00
42647;BME280;31319;53.678;-6.254;2023-02-24T22:28:53;101844.75;;;12.46;100.00
42647;BME280;31319;53.678;-6.254;2023-02-24T22:31:21;101842.75;;;12.52;100.00
42647;BME280;31319;53.678;-6.254;2023-02-24T22:33:47;101835.44;;;12.29;100.00
42647;BME280;31319;53.678;-6.254;2023-02-24T22:36:16;101849.16;;;12.29;100.00
42647;BME280;31319;53.678;-6.254;2023-02-24T22:38:43;101848.34;;;12.28;100.00
42647;BME280;31319;53.678;-6.254;2023-02-24T22:41:12;101851.31;;;11.94;100.00
42647;BME280;31319;53.678;-6.254;2023-02-24T22:43:38;101844.34;;;12.20;100.00
42647;BME280;31319;53.678;-6.254;2023-02-24T22:46:07;101864.50;;;12.11;100.00
42647;BME280;31319;53.678;-6.254;2023-02-24T22:48:35;101865.53;;;11.96;100.00
42647;BME280;31319;53.678;-6.254;2023-02-24T22:51:03;101865.53;;;11.96;100.00
42647;BME280;31319;53.678;-6.254;2023-02-24T22:53:31;101864.28;;;12.26;100.00
42647;BME280;31319;53.678;-6.254;2023-02-24T22:55:57;101864.19;;;12.31;100.00
42647;BME280;31319;53.678;-6.254;2023-02-24T22:58:23;101859.38;;;12.42;100.00
42647;BME280;31319;53.678;-6.254;2023-02-24T23:00:49;101859.31;;;12.80;100.00
42647;BME280;31319;53.678;-6.254;2023-02-24T23:03:21;101857.19;;;12.58;100.00
42647;BME280;31319;53.678;-6.254;2023-02-24T23:05:59;101865.84;;;12.65;100.00
42647;BME280;31319;53.678;-6.254;2023-02-24T23:08:26;101866.03;;;12.55;100.00
42647;BME280;31319;53.678;-6.254;2023-02-24T23:10:54;101871.00;;;12.34;100.00
42647;BME280;31319;53.678;-6.254;2023-02-24T23:13:20;101871.06;;;12.29;100.00
42647;BME280;31319;53.678;-6.254;2023-02-24T23:15:49;101865.38;;;12.44;100.00
42647;BME280;31319;53.678;-6.254;2023-02-24T23:18:15;101870.53;;;12.64;100.00
42647;BME280;31319;53.678;-6.254;2023-02-24T23:20:41;101869.84;;;12.54;100.00
42647;BME280;31319;53.678;-6.254;2023-02-24T23:23:09;101865.72;;;12.37;100.00
42647;BME280;31319;53.678;-6.254;2023-02-24T23:25:36;101870.50;;;12.13;100.00
42647;BME280;31319;53.678;-6.254;2023-02-24T23:28:03;101869.38;;;11.95;100.00
42647;BME280;31319;53.678;-6.254;2023-02-24T23:30:29;101863.16;;;12.08;100.00
42647;BME280;31319;53.678;-6.254;2023-02-24T23:32:55;101877.38;;;12.29;100.00
42647;BME280;31319;53.678;-6.254;2023-02-24T23:35:21;101886.09;;;12.31;100.00
42647;BME280;31319;53.678;-6.254;2023-02-24T23:37:47;101887.97;;;12.36;100.00
42647;BME280;31319;53.678;-6.254;2023-02-24T23:40:12;101892.25;;;12.42;100.00
42647;BME280;31319;53.678;-6.254;2023-02-24T23:42:42;101893.69;;;12.39;100.00
42647;BME280;31319;53.678;-6.254;2023-02-24T23:45:09;101895.81;;;12.42;100.00
42647;BME280;31319;53.678;-6.254;2023-02-24T23:47:35;101895.59;;;12.39;100.00
42647;BME280;31319;53.678;-6.254;2023-02-24T23:50:01;101896.44;;;12.39;100.00
42647;BME280;31319;53.678;-6.254;2023-02-24T23:52:27;101895.88;;;12.37;100.00
42647;BME280;31319;53.678;-6.254;2023-02-24T23:54:53;101890.72;;;12.36;100.00
42647;BME280;31319;53.678;-6.254;2023-02-24T23:57:22;101890.19;;;12.34;100.00
42647;BME280;31319;53.678;-6.254;2023-02-24T23:59:47;101897.47;;;12.25;100.00
